sensor_id;sensor_type;location;lat;lon;timestamp;temperature;humidity
15543;DHT22;7873;52.230;12.856;2023-01-05T00:00:22;25.00;42.90
15543;DHT22;7873;52.230;12.856;2023-01-05T00:02:48;25.00;42.90
15543;DHT22;7873;52.230;12.856;2023-01-05T00:05:15;24.90;43.00
15543;DHT22;7873;52.230;12.856;2023-01-05T00:07:43;24.90;43.10
15543;DHT22;7873;52.230;12.856;2023-01-05T00:10:10;24.80;43.20
15543;DHT22;7873;52.230;12.856;2023-01-05T00:12:58;24.80;43.30
15543;DHT22;7873;52.230;12.856;2023-01-05T00:15:42;24.80;43.30
15543;DHT22;7873;52.230;12.856;2023-01-05T00:18:26;24.70;43.40
15543;DHT22;7873;52.230;12.856;2023-01-05T00:21:11;24.60;43.50
15543;DHT22;7873;52.230;12.856;2023-01-05T00:24:00;24.60;43.70
15543;DHT22;7873;52.230;12.856;2023-01-05T00:26:27;24.60;43.80
15543;DHT22;7873;52.230;12.856;2023-01-05T00:28:53;24.50;43.80
15543;DHT22;7873;52.230;12.856;2023-01-05T00:31:20;24.50;43.90
15543;DHT22;7873;52.230;12.856;2023-01-05T00:33:47;24.50;43.90
15543;DHT22;7873;52.230;12.856;2023-01-05T00:36:13;24.50;43.90
15543;DHT22;7873;52.230;12.856;2023-01-05T00:38:40;24.40;44.00
15543;DHT22;7873;52.230;12.856;2023-01-05T00:41:08;24.40;44.00
15543;DHT22;7873;52.230;12.856;2023-01-05T00:43:35;24.40;44.00
15543;DHT22;7873;52.230;12.856;2023-01-05T00:46:01;24.40;44.10
15543;DHT22;7873;52.230;12.856;2023-01-05T00:48:28;24.40;44.10
15543;DHT22;7873;52.230;12.856;2023-01-05T00:50:55;24.30;44.10
15543;DHT22;7873;52.230;12.856;2023-01-05T00:53:21;24.30;44.20
15543;DHT22;7873;52.230;12.856;2023-01-05T00:55:54;24.30;44.40
15543;DHT22;7873;52.230;12.856;2023-01-05T00:58:23;24.30;44.40
15543;DHT22;7873;52.230;12.856;2023-01-05T01:00:49;24.20;45.10
15543;DHT22;7873;52.230;12.856;2023-01-05T01:03:16;24.20;44.40
15543;DHT22;7873;52.230;12.856;2023-01-05T01:05:43;24.20;44.50
15543;DHT22;7873;52.230;12.856;2023-01-05T01:08:09;24.10;44.60
15543;DHT22;7873;52.230;12.856;2023-01-05T01:10:37;24.10;44.70
15543;DHT22;7873;52.230;12.856;2023-01-05T01:13:04;24.10;44.70
15543;DHT22;7873;52.230;12.856;2023-01-05T01:15:32;24.10;44.80
15543;DHT22;7873;52.230;12.856;2023-01-05T01:18:01;24.10;44.90
15543;DHT22;7873;52.230;12.856;2023-01-05T01:20:27;24.00;44.90
15543;DHT22;7873;52.230;12.856;2023-01-05T01:22:54;23.90;44.90
15543;DHT22;7873;52.230;12.856;2023-01-05T01:25:24;23.90;45.00
15543;DHT22;7873;52.230;12.856;2023-01-05T01:27:51;23.90;45.00
15543;DHT22;7873;52.230;12.856;2023-01-05T01:30:17;23.90;45.00
15543;DHT22;7873;52.230;12.856;2023-01-05T01:32:46;23.90;45.10
15543;DHT22;7873;52.230;12.856;2023-01-05T01:35:12;23.90;45.20
15543;DHT22;7873;52.230;12.856;2023-01-05T01:37:39;23.80;45.20
15543;DHT22;7873;52.230;12.856;2023-01-05T01:40:06;23.90;45.30
15543;DHT22;7873;52.230;12.856;2023-01-05T01:42:34;23.80;45.20
15543;DHT22;7873;52.230;12.856;2023-01-05T01:45:03;23.80;45.20
15543;DHT22;7873;52.230;12.856;2023-01-05T01:47:40;23.80;45.20
15543;DHT22;7873;52.230;12.856;2023-01-05T01:50:14;23.80;45.20
15543;DHT22;7873;52.230;12.856;2023-01-05T01:52:44;23.70;45.20
15543;DHT22;7873;52.230;12.856;2023-01-05T01:55:14;23.70;45.30
15543;DHT22;7873;52.230;12.856;2023-01-05T01:57:41;23.70;45.30
15543;DHT22;7873;52.230;12.856;2023-01-05T02:00:11;23.70;45.40
15543;DHT22;7873;52.230;12.856;2023-01-05T02:02:39;23.70;45.40
15543;DHT22;7873;52.230;12.856;2023-01-05T02:05:07;23.60;45.40
15543;DHT22;7873;52.230;12.856;2023-01-05T02:07:38;23.60;45.50
15543;DHT22;7873;52.230;12.856;2023-01-05T02:10:09;23.60;45.40
15543;DHT22;7873;52.230;12.856;2023-01-05T02:12:37;23.60;45.50
15543;DHT22;7873;52.230;12.856;2023-01-05T02:15:19;23.60;45.50
15543;DHT22;7873;52.230;12.856;2023-01-05T02:17:57;23.60;45.70
15543;DHT22;7873;52.230;12.856;2023-01-05T02:20:36;23.60;45.70
15543;DHT22;7873;52.230;12.856;2023-01-05T02:29:32;23.50;45.70
15543;DHT22;7873;52.230;12.856;2023-01-05T02:32:23;23.50;45.80
15543;DHT22;7873;52.230;12.856;2023-01-05T02:34:57;23.40;45.70
15543;DHT22;7873;52.230;12.856;2023-01-05T02:37:32;23.50;45.80
15543;DHT22;7873;52.230;12.856;2023-01-05T02:40:05;23.40;45.70
15543;DHT22;7873;52.230;12.856;2023-01-05T02:42:35;23.40;45.80
15543;DHT22;7873;52.230;12.856;2023-01-05T02:45:05;23.40;45.80
15543;DHT22;7873;52.230;12.856;2023-01-05T02:47:38;23.40;45.80
15543;DHT22;7873;52.230;12.856;2023-01-05T02:50:08;23.40;45.90
15543;DHT22;7873;52.230;12.856;2023-01-05T02:52:42;23.30;45.90
15543;DHT22;7873;52.230;12.856;2023-01-05T02:55:13;23.30;45.90
15543;DHT22;7873;52.230;12.856;2023-01-05T02:57:44;23.40;46.00
15543;DHT22;7873;52.230;12.856;2023-01-05T03:00:15;23.30;45.90
15543;DHT22;7873;52.230;12.856;2023-01-05T03:02:48;23.30;45.90
15543;DHT22;7873;52.230;12.856;2023-01-05T03:05:20;23.30;46.00
15543;DHT22;7873;52.230;12.856;2023-01-05T03:07:51;23.30;46.00
15543;DHT22;7873;52.230;12.856;2023-01-05T03:10:32;23.20;46.00
15543;DHT22;7873;52.230;12.856;2023-01-05T03:13:19;23.20;46.10
15543;DHT22;7873;52.230;12.856;2023-01-05T03:16:05;23.20;46.10
15543;DHT22;7873;52.230;12.856;2023-01-05T03:18:34;23.20;46.10
15543;DHT22;7873;52.230;12.856;2023-01-05T03:21:22;23.20;46.10
15543;DHT22;7873;52.230;12.856;2023-01-05T03:23:50;23.20;46.10
15543;DHT22;7873;52.230;12.856;2023-01-05T03:26:36;23.20;46.20
15543;DHT22;7873;52.230;12.856;2023-01-05T03:29:22;23.10;46.10
15543;DHT22;7873;52.230;12.856;2023-01-05T03:32:06;23.10;46.10
15543;DHT22;7873;52.230;12.856;2023-01-05T03:34:57;23.10;46.10
15543;DHT22;7873;52.230;12.856;2023-01-05T03:37:46;23.10;46.10
15543;DHT22;7873;52.230;12.856;2023-01-05T03:40:18;23.00;46.10
15543;DHT22;7873;52.230;12.856;2023-01-05T03:42:48;23.10;46.20
15543;DHT22;7873;52.230;12.856;2023-01-05T03:45:15;23.10;46.20
15543;DHT22;7873;52.230;12.856;2023-01-05T03:47:43;23.00;46.20
15543;DHT22;7873;52.230;12.856;2023-01-05T03:50:11;23.00;46.20
15543;DHT22;7873;52.230;12.856;2023-01-05T03:52:38;23.00;46.20
15543;DHT22;7873;52.230;12.856;2023-01-05T03:55:05;23.00;46.20
15543;DHT22;7873;52.230;12.856;2023-01-05T03:57:32;23.00;46.20
15543;DHT22;7873;52.230;12.856;2023-01-05T03:59:59;23.00;46.30
15543;DHT22;7873;52.230;12.856;2023-01-05T04:02:25;23.00;46.30
15543;DHT22;7873;52.230;12.856;2023-01-05T04:04:52;23.00;46.40
15543;DHT22;7873;52.230;12.856;2023-01-05T04:07:20;22.90;46.30
15543;DHT22;7873;52.230;12.856;2023-01-05T04:09:47;22.90;46.30
15543;DHT22;7873;52.230;12.856;2023-01-05T04:12:13;22.90;46.30
15543;DHT22;7873;52.230;12.856;2023-01-05T04:14:40;22.90;46.40
15543;DHT22;7873;52.230;12.856;2023-01-05T04:17:07;22.90;46.40
15543;DHT22;7873;52.230;12.856;2023-01-05T04:19:33;22.90;46.40
15543;DHT22;7873;52.230;12.856;2023-01-05T04:22:00;22.90;46.40
15543;DHT22;7873;52.230;12.856;2023-01-05T04:24:28;22.80;46.40
15543;DHT22;7873;52.230;12.856;2023-01-05T04:26:55;22.90;46.40
15543;DHT22;7873;52.230;12.856;2023-01-05T04:29:21;23.00;46.10
15543;DHT22;7873;52.230;12.856;2023-01-05T04:31:48;23.10;45.60
15543;DHT22;7873;52.230;12.856;2023-01-05T04:34:14;23.20;45.50
15543;DHT22;7873;52.230;12.856;2023-01-05T04:36:41;23.20;45.70
15543;DHT22;7873;52.230;12.856;2023-01-05T04:39:08;23.20;45.60
15543;DHT22;7873;52.230;12.856;2023-01-05T04:41:36;23.20;45.80
15543;DHT22;7873;52.230;12.856;2023-01-05T04:44:03;23.30;45.50
15543;DHT22;7873;52.230;12.856;2023-01-05T04:46:29;23.30;45.30
15543;DHT22;7873;52.230;12.856;2023-01-05T04:48:56;23.30;45.20
15543;DHT22;7873;52.230;12.856;2023-01-05T04:51:23;23.40;45.20
15543;DHT22;7873;52.230;12.856;2023-01-05T04:53:50;23.40;45.00
15543;DHT22;7873;52.230;12.856;2023-01-05T04:56:17;23.40;45.00
15543;DHT22;7873;52.230;12.856;2023-01-05T04:58:45;23.40;45.00
15543;DHT22;7873;52.230;12.856;2023-01-05T05:01:11;23.40;43.50
15543;DHT22;7873;52.230;12.856;2023-01-05T05:03:38;23.20;43.10
15543;DHT22;7873;52.230;12.856;2023-01-05T05:06:05;23.20;44.50
15543;DHT22;7873;52.230;12.856;2023-01-05T05:08:31;23.20;44.00
15543;DHT22;7873;52.230;12.856;2023-01-05T05:10:58;23.30;44.00
15543;DHT22;7873;52.230;12.856;2023-01-05T05:13:25;23.30;43.90
15543;DHT22;7873;52.230;12.856;2023-01-05T05:15:53;23.40;43.90
15543;DHT22;7873;52.230;12.856;2023-01-05T05:18:19;23.40;43.90
15543;DHT22;7873;52.230;12.856;2023-01-05T05:20:47;23.50;43.70
15543;DHT22;7873;52.230;12.856;2023-01-05T05:23:16;23.50;43.50
15543;DHT22;7873;52.230;12.856;2023-01-05T05:25:43;23.60;43.10
15543;DHT22;7873;52.230;12.856;2023-01-05T05:28:10;23.70;42.90
15543;DHT22;7873;52.230;12.856;2023-01-05T05:30:37;23.90;42.60
15543;DHT22;7873;52.230;12.856;2023-01-05T05:33:05;24.20;42.20
15543;DHT22;7873;52.230;12.856;2023-01-05T05:35:31;24.40;41.70
15543;DHT22;7873;52.230;12.856;2023-01-05T05:37:58;24.60;41.20
15543;DHT22;7873;52.230;12.856;2023-01-05T05:40:25;24.80;41.70
15543;DHT22;7873;52.230;12.856;2023-01-05T05:42:53;25.00;41.60
15543;DHT22;7873;52.230;12.856;2023-01-05T05:45:20;25.10;41.80
15543;DHT22;7873;52.230;12.856;2023-01-05T05:47:47;25.20;41.60
15543;DHT22;7873;52.230;12.856;2023-01-05T05:50:15;25.20;41.40
15543;DHT22;7873;52.230;12.856;2023-01-05T05:52:42;25.30;41.30
15543;DHT22;7873;52.230;12.856;2023-01-05T05:55:08;25.50;41.10
15543;DHT22;7873;52.230;12.856;2023-01-05T05:57:35;25.60;40.80
15543;DHT22;7873;52.230;12.856;2023-01-05T06:00:02;25.70;40.50
15543;DHT22;7873;52.230;12.856;2023-01-05T06:02:29;25.80;40.40
15543;DHT22;7873;52.230;12.856;2023-01-05T06:04:56;26.00;40.20
15543;DHT22;7873;52.230;12.856;2023-01-05T06:07:24;26.10;40.00
15543;DHT22;7873;52.230;12.856;2023-01-05T06:09:51;26.20;39.90
15543;DHT22;7873;52.230;12.856;2023-01-05T06:12:17;26.30;39.70
15543;DHT22;7873;52.230;12.856;2023-01-05T06:14:44;26.30;39.70
15543;DHT22;7873;52.230;12.856;2023-01-05T06:17:11;26.40;39.60
15543;DHT22;7873;52.230;12.856;2023-01-05T06:19:37;26.50;39.60
15543;DHT22;7873;52.230;12.856;2023-01-05T06:22:04;26.70;39.40
15543;DHT22;7873;52.230;12.856;2023-01-05T06:24:32;26.80;39.30
15543;DHT22;7873;52.230;12.856;2023-01-05T06:26:58;26.90;39.10
15543;DHT22;7873;52.230;12.856;2023-01-05T06:29:25;27.00;39.00
15543;DHT22;7873;52.230;12.856;2023-01-05T06:31:52;27.10;38.80
15543;DHT22;7873;52.230;12.856;2023-01-05T06:34:18;27.30;38.80
15543;DHT22;7873;52.230;12.856;2023-01-05T06:36:45;27.40;38.60
15543;DHT22;7873;52.230;12.856;2023-01-05T06:39:12;27.50;38.50
15543;DHT22;7873;52.230;12.856;2023-01-05T06:41:40;27.60;38.50
15543;DHT22;7873;52.230;12.856;2023-01-05T06:44:06;27.70;38.30
15543;DHT22;7873;52.230;12.856;2023-01-05T06:46:33;27.80;38.10
15543;DHT22;7873;52.230;12.856;2023-01-05T06:49:00;27.90;37.90
15543;DHT22;7873;52.230;12.856;2023-01-05T06:51:27;28.00;37.80
15543;DHT22;7873;52.230;12.856;2023-01-05T06:53:53;28.10;37.70
15543;DHT22;7873;52.230;12.856;2023-01-05T06:56:20;28.30;37.70
15543;DHT22;7873;52.230;12.856;2023-01-05T06:58:48;28.30;37.60
15543;DHT22;7873;52.230;12.856;2023-01-05T07:01:14;28.30;37.30
15543;DHT22;7873;52.230;12.856;2023-01-05T07:03:41;28.40;36.90
15543;DHT22;7873;52.230;12.856;2023-01-05T07:06:08;28.30;37.40
15543;DHT22;7873;52.230;12.856;2023-01-05T07:08:36;28.10;36.00
15543;DHT22;7873;52.230;12.856;2023-01-05T07:11:02;27.70;36.80
15543;DHT22;7873;52.230;12.856;2023-01-05T07:13:29;27.90;37.60
15543;DHT22;7873;52.230;12.856;2023-01-05T07:15:57;28.10;37.30
15543;DHT22;7873;52.230;12.856;2023-01-05T07:18:24;28.40;36.80
15543;DHT22;7873;52.230;12.856;2023-01-05T07:20:50;28.30;36.50
15543;DHT22;7873;52.230;12.856;2023-01-05T07:23:17;28.50;36.10
15543;DHT22;7873;52.230;12.856;2023-01-05T07:25:44;28.50;35.90
15543;DHT22;7873;52.230;12.856;2023-01-05T07:28:11;28.50;35.90
15543;DHT22;7873;52.230;12.856;2023-01-05T07:30:38;28.50;35.40
15543;DHT22;7873;52.230;12.856;2023-01-05T07:33:06;28.60;35.90
15543;DHT22;7873;52.230;12.856;2023-01-05T07:35:32;28.50;35.80
15543;DHT22;7873;52.230;12.856;2023-01-05T07:37:59;28.50;35.40
15543;DHT22;7873;52.230;12.856;2023-01-05T07:40:26;28.40;35.40
15543;DHT22;7873;52.230;12.856;2023-01-05T07:42:52;28.50;35.70
15543;DHT22;7873;52.230;12.856;2023-01-05T07:45:19;28.40;34.70
15543;DHT22;7873;52.230;12.856;2023-01-05T07:47:46;28.30;35.00
15543;DHT22;7873;52.230;12.856;2023-01-05T07:50:14;28.20;35.20
15543;DHT22;7873;52.230;12.856;2023-01-05T07:52:41;28.20;34.70
15543;DHT22;7873;52.230;12.856;2023-01-05T07:55:08;28.10;34.70
15543;DHT22;7873;52.230;12.856;2023-01-05T07:57:35;28.00;34.30
15543;DHT22;7873;52.230;12.856;2023-01-05T08:00:02;28.00;34.30
15543;DHT22;7873;52.230;12.856;2023-01-05T08:02:29;27.90;34.30
15543;DHT22;7873;52.230;12.856;2023-01-05T08:04:56;28.00;34.60
15543;DHT22;7873;52.230;12.856;2023-01-05T08:07:24;28.00;34.40
15543;DHT22;7873;52.230;12.856;2023-01-05T08:09:50;28.10;34.00
15543;DHT22;7873;52.230;12.856;2023-01-05T08:12:34;28.20;34.30
15543;DHT22;7873;52.230;12.856;2023-01-05T08:15:21;28.40;35.20
15543;DHT22;7873;52.230;12.856;2023-01-05T08:17:48;28.50;34.00
15543;DHT22;7873;52.230;12.856;2023-01-05T08:20:14;28.50;33.50
15543;DHT22;7873;52.230;12.856;2023-01-05T08:22:42;28.70;34.50
15543;DHT22;7873;52.230;12.856;2023-01-05T08:25:09;28.90;33.90
15543;DHT22;7873;52.230;12.856;2023-01-05T08:27:36;29.00;34.70
15543;DHT22;7873;52.230;12.856;2023-01-05T08:30:03;29.10;34.20
15543;DHT22;7873;52.230;12.856;2023-01-05T08:32:30;29.20;33.70
15543;DHT22;7873;52.230;12.856;2023-01-05T08:34:57;29.30;34.00
15543;DHT22;7873;52.230;12.856;2023-01-05T08:37:24;29.30;34.00
15543;DHT22;7873;52.230;12.856;2023-01-05T08:39:52;29.40;33.60
15543;DHT22;7873;52.230;12.856;2023-01-05T08:42:18;29.50;33.70
15543;DHT22;7873;52.230;12.856;2023-01-05T08:44:45;29.30;31.80
15543;DHT22;7873;52.230;12.856;2023-01-05T08:47:12;29.00;33.40
15543;DHT22;7873;52.230;12.856;2023-01-05T08:49:38;29.10;33.10
15543;DHT22;7873;52.230;12.856;2023-01-05T08:52:05;29.00;32.70
15543;DHT22;7873;52.230;12.856;2023-01-05T08:54:33;28.90;33.40
15543;DHT22;7873;52.230;12.856;2023-01-05T08:57:01;28.90;32.80
15543;DHT22;7873;52.230;12.856;2023-01-05T08:59:27;28.70;32.90
15543;DHT22;7873;52.230;12.856;2023-01-05T09:01:54;28.50;33.50
15543;DHT22;7873;52.230;12.856;2023-01-05T09:04:21;28.20;34.40
15543;DHT22;7873;52.230;12.856;2023-01-05T09:06:47;28.00;34.60
15543;DHT22;7873;52.230;12.856;2023-01-05T09:09:14;27.90;34.90
15543;DHT22;7873;52.230;12.856;2023-01-05T09:11:40;27.80;35.20
15543;DHT22;7873;52.230;12.856;2023-01-05T09:14:11;27.60;35.00
15543;DHT22;7873;52.230;12.856;2023-01-05T09:16:39;27.40;35.20
15543;DHT22;7873;52.230;12.856;2023-01-05T09:19:06;27.10;36.30
15543;DHT22;7873;52.230;12.856;2023-01-05T09:21:34;26.90;36.60
15543;DHT22;7873;52.230;12.856;2023-01-05T09:24:03;26.90;36.90
15543;DHT22;7873;52.230;12.856;2023-01-05T09:26:31;26.70;37.10
15543;DHT22;7873;52.230;12.856;2023-01-05T09:28:58;26.70;37.40
15543;DHT22;7873;52.230;12.856;2023-01-05T09:31:27;26.70;37.50
15543;DHT22;7873;52.230;12.856;2023-01-05T09:33:54;26.60;37.60
15543;DHT22;7873;52.230;12.856;2023-01-05T09:36:22;26.60;37.80
15543;DHT22;7873;52.230;12.856;2023-01-05T09:38:50;26.50;38.00
15543;DHT22;7873;52.230;12.856;2023-01-05T09:41:19;26.50;38.00
15543;DHT22;7873;52.230;12.856;2023-01-05T09:43:49;26.50;38.10
15543;DHT22;7873;52.230;12.856;2023-01-05T09:46:20;26.40;38.20
15543;DHT22;7873;52.230;12.856;2023-01-05T09:48:51;26.40;38.40
15543;DHT22;7873;52.230;12.856;2023-01-05T09:51:20;26.30;38.50
15543;DHT22;7873;52.230;12.856;2023-01-05T09:53:47;26.30;38.30
15543;DHT22;7873;52.230;12.856;2023-01-05T09:56:18;26.20;38.50
15543;DHT22;7873;52.230;12.856;2023-01-05T09:58:51;26.20;38.60
15543;DHT22;7873;52.230;12.856;2023-01-05T10:01:21;26.30;39.00
15543;DHT22;7873;52.230;12.856;2023-01-05T10:03:53;26.00;39.20
15543;DHT22;7873;52.230;12.856;2023-01-05T10:06:24;25.80;39.70
15543;DHT22;7873;52.230;12.856;2023-01-05T10:08:52;25.50;40.20
15543;DHT22;7873;52.230;12.856;2023-01-05T10:11:30;25.20;40.80
15543;DHT22;7873;52.230;12.856;2023-01-05T10:14:21;25.40;40.50
15543;DHT22;7873;52.230;12.856;2023-01-05T10:16:51;25.60;40.00
15543;DHT22;7873;52.230;12.856;2023-01-05T10:19:19;25.70;39.80
15543;DHT22;7873;52.230;12.856;2023-01-05T10:21:48;25.70;39.80
15543;DHT22;7873;52.230;12.856;2023-01-05T10:24:26;25.80;39.70
15543;DHT22;7873;52.230;12.856;2023-01-05T10:27:06;25.80;39.90
15543;DHT22;7873;52.230;12.856;2023-01-05T10:29:38;25.90;40.00
15543;DHT22;7873;52.230;12.856;2023-01-05T10:32:10;25.80;39.90
15543;DHT22;7873;52.230;12.856;2023-01-05T10:34:52;25.80;40.00
15543;DHT22;7873;52.230;12.856;2023-01-05T10:40:37;25.70;40.20
15543;DHT22;7873;52.230;12.856;2023-01-05T10:43:23;25.90;40.20
15543;DHT22;7873;52.230;12.856;2023-01-05T10:46:02;25.80;40.20
15543;DHT22;7873;52.230;12.856;2023-01-05T10:48:30;25.80;40.30
15543;DHT22;7873;52.230;12.856;2023-01-05T10:51:02;25.70;40.40
15543;DHT22;7873;52.230;12.856;2023-01-05T10:53:32;25.60;40.50
15543;DHT22;7873;52.230;12.856;2023-01-05T10:56:02;25.50;40.70
15543;DHT22;7873;52.230;12.856;2023-01-05T10:58:33;25.50;40.80
15543;DHT22;7873;52.230;12.856;2023-01-05T11:01:03;25.50;40.90
15543;DHT22;7873;52.230;12.856;2023-01-05T11:03:33;25.40;40.80
15543;DHT22;7873;52.230;12.856;2023-01-05T11:06:03;25.50;40.90
15543;DHT22;7873;52.230;12.856;2023-01-05T11:08:33;25.40;41.00
15543;DHT22;7873;52.230;12.856;2023-01-05T11:11:02;25.40;41.10
15543;DHT22;7873;52.230;12.856;2023-01-05T11:13:31;25.30;41.10
15543;DHT22;7873;52.230;12.856;2023-01-05T11:16:01;25.30;41.20
15543;DHT22;7873;52.230;12.856;2023-01-05T11:18:33;25.20;41.20
15543;DHT22;7873;52.230;12.856;2023-01-05T11:21:08;25.30;41.20
15543;DHT22;7873;52.230;12.856;2023-01-05T11:23:37;25.30;41.40
15543;DHT22;7873;52.230;12.856;2023-01-05T11:26:10;25.20;41.40
15543;DHT22;7873;52.230;12.856;2023-01-05T11:28:51;25.20;41.50
15543;DHT22;7873;52.230;12.856;2023-01-05T11:31:24;25.20;41.60
15543;DHT22;7873;52.230;12.856;2023-01-05T11:33:54;25.20;41.60
15543;DHT22;7873;52.230;12.856;2023-01-05T11:36:24;25.10;41.60
15543;DHT22;7873;52.230;12.856;2023-01-05T11:38:52;25.10;41.80
15543;DHT22;7873;52.230;12.856;2023-01-05T11:41:21;25.10;41.90
15543;DHT22;7873;52.230;12.856;2023-01-05T11:43:48;25.00;41.90
15543;DHT22;7873;52.230;12.856;2023-01-05T11:46:18;25.00;41.90
15543;DHT22;7873;52.230;12.856;2023-01-05T11:48:49;25.00;41.90
15543;DHT22;7873;52.230;12.856;2023-01-05T11:51:32;25.00;42.00
15543;DHT22;7873;52.230;12.856;2023-01-05T11:54:00;25.00;42.10
15543;DHT22;7873;52.230;12.856;2023-01-05T11:56:27;25.00;42.20
15543;DHT22;7873;52.230;12.856;2023-01-05T11:58:54;24.90;42.20
15543;DHT22;7873;52.230;12.856;2023-01-05T12:04:20;24.80;42.30
15543;DHT22;7873;52.230;12.856;2023-01-05T12:07:00;24.80;42.40
15543;DHT22;7873;52.230;12.856;2023-01-05T12:09:40;24.80;42.50
15543;DHT22;7873;52.230;12.856;2023-01-05T12:12:19;24.80;42.60
15543;DHT22;7873;52.230;12.856;2023-01-05T12:14:59;24.70;42.60
15543;DHT22;7873;52.230;12.856;2023-01-05T12:17:40;24.70;42.60
15543;DHT22;7873;52.230;12.856;2023-01-05T12:23:16;24.70;42.80
15543;DHT22;7873;52.230;12.856;2023-01-05T12:25:55;24.60;42.80
15543;DHT22;7873;52.230;12.856;2023-01-05T12:28:30;24.60;42.90
15543;DHT22;7873;52.230;12.856;2023-01-05T12:31:13;24.60;43.00
15543;DHT22;7873;52.230;12.856;2023-01-05T12:33:55;24.50;43.00
15543;DHT22;7873;52.230;12.856;2023-01-05T12:36:50;24.50;43.00
15543;DHT22;7873;52.230;12.856;2023-01-05T12:39:33;24.50;43.20
15543;DHT22;7873;52.230;12.856;2023-01-05T12:42:20;24.40;43.20
15543;DHT22;7873;52.230;12.856;2023-01-05T12:45:00;24.40;43.30
15543;DHT22;7873;52.230;12.856;2023-01-05T12:47:48;24.40;43.30
15543;DHT22;7873;52.230;12.856;2023-01-05T12:50:24;24.40;43.30
15543;DHT22;7873;52.230;12.856;2023-01-05T12:52:57;24.40;43.40
15543;DHT22;7873;52.230;12.856;2023-01-05T12:55:30;24.30;43.40
15543;DHT22;7873;52.230;12.856;2023-01-05T12:58:02;24.30;43.50
15543;DHT22;7873;52.230;12.856;2023-01-05T13:00:32;24.30;43.50
15543;DHT22;7873;52.230;12.856;2023-01-05T13:03:09;24.30;43.50
15543;DHT22;7873;52.230;12.856;2023-01-05T13:05:41;24.30;43.60
15543;DHT22;7873;52.230;12.856;2023-01-05T13:08:14;24.20;43.70
15543;DHT22;7873;52.230;12.856;2023-01-05T13:10:46;24.20;43.70
15543;DHT22;7873;52.230;12.856;2023-01-05T13:13:18;24.20;43.70
15543;DHT22;7873;52.230;12.856;2023-01-05T13:15:51;24.20;43.80
15543;DHT22;7873;52.230;12.856;2023-01-05T13:18:24;24.10;43.90
15543;DHT22;7873;52.230;12.856;2023-01-05T13:20:52;24.10;43.90
15543;DHT22;7873;52.230;12.856;2023-01-05T13:23:22;24.10;43.90
15543;DHT22;7873;52.230;12.856;2023-01-05T13:25:54;24.10;43.80
15543;DHT22;7873;52.230;12.856;2023-01-05T13:28:24;24.20;43.60
15543;DHT22;7873;52.230;12.856;2023-01-05T13:30:55;24.20;43.40
15543;DHT22;7873;52.230;12.856;2023-01-05T13:33:35;24.20;43.40
15543;DHT22;7873;52.230;12.856;2023-01-05T13:36:20;24.10;43.30
15543;DHT22;7873;52.230;12.856;2023-01-05T13:39:11;24.20;43.10
15543;DHT22;7873;52.230;12.856;2023-01-05T13:41:54;24.30;43.10
15543;DHT22;7873;52.230;12.856;2023-01-05T13:44:36;24.30;43.00
15543;DHT22;7873;52.230;12.856;2023-01-05T13:47:20;24.40;43.00
15543;DHT22;7873;52.230;12.856;2023-01-05T13:50:02;24.40;42.80
15543;DHT22;7873;52.230;12.856;2023-01-05T13:52:52;24.40;43.00
15543;DHT22;7873;52.230;12.856;2023-01-05T13:55:26;24.40;43.10
15543;DHT22;7873;52.230;12.856;2023-01-05T13:57:56;24.40;42.90
15543;DHT22;7873;52.230;12.856;2023-01-05T14:00:26;24.40;42.80
15543;DHT22;7873;52.230;12.856;2023-01-05T14:02:57;24.40;42.80
15543;DHT22;7873;52.230;12.856;2023-01-05T14:05:27;24.40;42.90
15543;DHT22;7873;52.230;12.856;2023-01-05T14:07:56;24.40;42.90
15543;DHT22;7873;52.230;12.856;2023-01-05T14:10:26;24.40;42.90
15543;DHT22;7873;52.230;12.856;2023-01-05T14:12:56;24.40;43.10
15543;DHT22;7873;52.230;12.856;2023-01-05T14:15:39;24.20;42.60
15543;DHT22;7873;52.230;12.856;2023-01-05T14:18:07;24.10;42.50
15543;DHT22;7873;52.230;12.856;2023-01-05T14:20:44;23.90;42.70
15543;DHT22;7873;52.230;12.856;2023-01-05T14:26:18;23.80;43.10
15543;DHT22;7873;52.230;12.856;2023-01-05T14:32:25;23.60;43.10
15543;DHT22;7873;52.230;12.856;2023-01-05T14:34:54;23.60;43.40
15543;DHT22;7873;52.230;12.856;2023-01-05T14:37:26;23.60;43.30
15543;DHT22;7873;52.230;12.856;2023-01-05T14:39:59;23.60;43.50
15543;DHT22;7873;52.230;12.856;2023-01-05T14:42:29;23.50;43.50
15543;DHT22;7873;52.230;12.856;2023-01-05T14:45:02;23.50;43.60
15543;DHT22;7873;52.230;12.856;2023-01-05T14:47:33;23.50;43.60
15543;DHT22;7873;52.230;12.856;2023-01-05T14:50:04;23.50;43.70
15543;DHT22;7873;52.230;12.856;2023-01-05T14:52:51;23.40;43.60
15543;DHT22;7873;52.230;12.856;2023-01-05T14:55:20;23.40;43.70
15543;DHT22;7873;52.230;12.856;2023-01-05T14:57:50;23.40;43.80
15543;DHT22;7873;52.230;12.856;2023-01-05T15:00:22;23.40;43.80
15543;DHT22;7873;52.230;12.856;2023-01-05T15:03:02;23.40;43.90
15543;DHT22;7873;52.230;12.856;2023-01-05T15:05:39;23.40;43.90
15543;DHT22;7873;52.230;12.856;2023-01-05T15:08:17;23.30;43.90
15543;DHT22;7873;52.230;12.856;2023-01-05T15:11:10;23.30;43.90
15543;DHT22;7873;52.230;12.856;2023-01-05T15:13:56;23.20;43.90
15543;DHT22;7873;52.230;12.856;2023-01-05T15:23:24;23.30;43.80
15543;DHT22;7873;52.230;12.856;2023-01-05T15:26:26;23.30;43.50
15543;DHT22;7873;52.230;12.856;2023-01-05T15:32:05;23.50;44.30
15543;DHT22;7873;52.230;12.856;2023-01-05T15:34:40;23.40;40.10
15543;DHT22;7873;52.230;12.856;2023-01-05T15:37:10;23.20;40.60
15543;DHT22;7873;52.230;12.856;2023-01-05T15:39:46;23.20;43.80
15543;DHT22;7873;52.230;12.856;2023-01-05T15:42:14;23.30;44.00
15543;DHT22;7873;52.230;12.856;2023-01-05T15:44:45;23.30;43.90
15543;DHT22;7873;52.230;12.856;2023-01-05T15:47:13;23.40;43.30
15543;DHT22;7873;52.230;12.856;2023-01-05T15:49:41;23.50;43.50
15543;DHT22;7873;52.230;12.856;2023-01-05T15:52:19;23.50;43.30
15543;DHT22;7873;52.230;12.856;2023-01-05T15:54:56;23.60;43.30
15543;DHT22;7873;52.230;12.856;2023-01-05T15:57:24;23.70;43.00
15543;DHT22;7873;52.230;12.856;2023-01-05T15:59:51;23.80;43.00
15543;DHT22;7873;52.230;12.856;2023-01-05T16:02:20;24.00;42.80
15543;DHT22;7873;52.230;12.856;2023-01-05T16:07:39;24.20;42.40
15543;DHT22;7873;52.230;12.856;2023-01-05T16:10:14;24.20;42.30
15543;DHT22;7873;52.230;12.856;2023-01-05T16:12:42;24.20;42.10
15543;DHT22;7873;52.230;12.856;2023-01-05T16:15:10;24.40;41.40
15543;DHT22;7873;52.230;12.856;2023-01-05T16:17:41;24.60;40.70
15543;DHT22;7873;52.230;12.856;2023-01-05T16:20:11;24.60;40.10
15543;DHT22;7873;52.230;12.856;2023-01-05T16:22:41;24.40;40.70
15543;DHT22;7873;52.230;12.856;2023-01-05T16:25:12;24.40;40.40
15543;DHT22;7873;52.230;12.856;2023-01-05T16:27:45;24.50;41.10